createdAt,value
2022-07-29T00:00:40.172Z,49.73
2022-07-29T00:03:07.732Z,49.83
2022-07-29T00:05:36.604Z,49.30
2022-07-29T00:08:06.344Z,50.20
2022-07-29T00:10:37.344Z,49.78
2022-07-29T00:13:04.840Z,49.83
2022-07-29T00:15:32.374Z,49.75
2022-07-29T00:17:59.909Z,47.68
2022-07-29T00:20:27.440Z,48.17
2022-07-29T00:22:56.315Z,47.66
2022-07-29T00:25:23.846Z,48.10
2022-07-29T00:27:51.401Z,47.09
2022-07-29T00:30:18.924Z,47.01
2022-07-29T00:32:46.451Z,48.77
2022-07-29T00:35:31.590Z,49.09
2022-07-29T00:38:02.412Z,48.33
2022-07-29T00:40:29.959Z,47.93
2022-07-29T00:42:57.526Z,50.07
2022-07-29T00:45:27.432Z,50.97
2022-07-29T00:47:55.126Z,50.72
2022-07-29T00:50:22.890Z,49.57
2022-07-29T00:52:51.076Z,48.81
2022-07-29T00:55:20.109Z,48.16
2022-07-29T00:57:48.317Z,47.15
2022-07-29T01:00:20.429Z,46.80
2022-07-29T01:02:49.359Z,47.16
2022-07-29T01:05:19.648Z,47.31
2022-07-29T01:07:48.560Z,47.16
2022-07-29T01:10:17.942Z,46.83
2022-07-29T01:12:50.026Z,46.78
2022-07-29T01:15:18.237Z,47.32
2022-07-29T01:17:53.284Z,49.42
2022-07-29T01:20:31.674Z,50.41
2022-07-29T01:23:12.261Z,51.34
2022-07-29T01:26:05.954Z,49.44
2022-07-29T01:29:00.590Z,48.69
2022-07-29T01:31:51.359Z,48.77
2022-07-29T01:34:33.033Z,50.23
2022-07-29T01:37:09.188Z,52.52
2022-07-29T01:39:39.313Z,52.85
2022-07-29T01:42:12.020Z,52.01
2022-07-29T01:44:50.323Z,51.33
2022-07-29T01:47:22.301Z,51.29
2022-07-29T01:49:53.177Z,52.07
2022-07-29T01:52:25.534Z,52.91
2022-07-29T01:54:57.132Z,51.70
2022-07-29T01:57:30.329Z,50.96
2022-07-29T02:00:01.498Z,50.29
2022-07-29T02:02:31.436Z,52.67
2022-07-29T02:05:01.602Z,53.55
2022-07-29T02:07:33.856Z,54.14
2022-07-29T02:10:03.717Z,56.17
2022-07-29T02:12:33.661Z,57.02
2022-07-29T02:15:06.376Z,58.05
2022-07-29T02:17:40.981Z,58.42
2022-07-29T02:20:11.126Z,58.41
2022-07-29T02:22:40.968Z,58.70
2022-07-29T02:25:14.226Z,57.69
2022-07-29T02:27:43.622Z,58.61
2022-07-29T02:30:14.630Z,58.30
2022-07-29T02:32:44.307Z,58.00
2022-07-29T02:35:16.370Z,58.22
2022-07-29T02:37:46.574Z,58.66
2022-07-29T02:40:17.235Z,56.39
2022-07-29T02:42:47.328Z,53.85
2022-07-29T02:45:16.195Z,56.90
2022-07-29T02:47:45.872Z,59.08
2022-07-29T02:50:17.441Z,55.82
2022-07-29T02:52:46.952Z,56.44
2022-07-29T02:55:21.067Z,55.64
2022-07-29T02:57:53.875Z,57.70
2022-07-29T03:00:28.882Z,56.44
2022-07-29T03:03:00.468Z,56.98
2022-07-29T03:05:29.279Z,59.00
2022-07-29T03:07:59.090Z,58.21
2022-07-29T03:10:27.242Z,58.61
2022-07-29T03:12:57.181Z,57.84
2022-07-29T03:15:26.738Z,57.30
2022-07-29T03:17:54.885Z,58.10
2022-07-29T03:20:22.872Z,59.33
2022-07-29T03:22:50.772Z,58.71
2022-07-29T03:25:20.739Z,60.85
2022-07-29T03:27:49.776Z,59.94
2022-07-29T03:30:21.591Z,60.52
2022-07-29T03:32:52.526Z,62.97
2022-07-29T03:35:20.487Z,65.07
2022-07-29T03:37:48.309Z,64.33
2022-07-29T03:40:23.915Z,62.19
2022-07-29T03:42:55.182Z,64.79
2022-07-29T03:45:23.994Z,66.57
2022-07-29T03:48:00.653Z,68.34
2022-07-29T03:50:30.581Z,69.84
2022-07-29T03:52:58.358Z,69.92
2022-07-29T03:55:26.456Z,66.13
2022-07-29T03:57:54.856Z,62.60
2022-07-29T04:00:23.511Z,58.00
2022-07-29T04:02:51.929Z,56.82
2022-07-29T04:05:21.093Z,55.96
2022-07-29T04:07:49.510Z,54.23
2022-07-29T04:10:30.335Z,54.10
2022-07-29T04:13:00.386Z,61.19
2022-07-29T04:15:31.457Z,62.12
2022-07-29T04:17:59.501Z,61.95
2022-07-29T04:20:28.533Z,58.06
2022-07-29T04:22:56.158Z,55.74
2022-07-29T04:25:23.978Z,54.51
2022-07-29T04:28:04.026Z,58.26
2022-07-29T04:30:33.097Z,57.22
2022-07-29T04:33:01.703Z,60.22
2022-07-29T04:35:30.938Z,62.91
2022-07-29T04:38:07.024Z,64.43
2022-07-29T04:40:35.502Z,63.45
2022-07-29T04:43:06.243Z,61.31
2022-07-29T04:45:33.758Z,59.37
2022-07-29T04:48:01.263Z,59.60
2022-07-29T04:50:30.308Z,58.04
2022-07-29T04:52:57.816Z,56.69
2022-07-29T04:55:25.842Z,54.26
2022-07-29T04:57:53.362Z,54.44
2022-07-29T05:00:20.876Z,53.36
2022-07-29T05:02:48.416Z,52.42
2022-07-29T05:05:15.921Z,51.53
2022-07-29T05:07:44.791Z,51.11
2022-07-29T05:10:12.670Z,51.03
2022-07-29T05:12:40.182Z,52.45
2022-07-29T05:15:08.836Z,55.43
2022-07-29T05:17:36.365Z,53.76
2022-07-29T05:20:04.180Z,52.18
2022-07-29T05:22:31.733Z,52.19
2022-07-29T05:25:03.282Z,53.66
2022-07-29T05:27:34.512Z,52.38
2022-07-29T05:30:02.012Z,51.73
2022-07-29T05:32:29.763Z,52.23
2022-07-29T05:34:57.269Z,52.96
2022-07-29T05:37:24.804Z,54.00
2022-07-29T05:39:56.735Z,58.35
2022-07-29T05:42:31.640Z,56.91
2022-07-29T05:44:59.227Z,56.49
2022-07-29T05:47:26.881Z,53.11
2022-07-29T05:49:54.916Z,52.92
2022-07-29T05:52:23.101Z,52.29
2022-07-29T05:54:50.646Z,51.57
2022-07-29T05:57:19.258Z,50.90
2022-07-29T05:59:48.969Z,53.36
2022-07-29T06:02:17.392Z,52.49
2022-07-29T06:04:45.655Z,57.71
2022-07-29T06:07:13.236Z,60.79
2022-07-29T06:09:40.847Z,60.68
2022-07-29T06:12:08.592Z,66.86
2022-07-29T06:14:37.049Z,73.55
2022-07-29T06:17:06.410Z,69.20
2022-07-29T06:19:36.313Z,75.78
2022-07-29T06:22:04.182Z,75.10
2022-07-29T06:24:31.769Z,74.12
2022-07-29T06:26:59.503Z,81.91
2022-07-29T06:29:27.073Z,82.46
2022-07-29T06:31:54.613Z,86.35
2022-07-29T06:34:23.480Z,78.93
2022-07-29T06:36:51.477Z,80.35
2022-07-29T06:39:20.345Z,77.83
2022-07-29T06:41:49.795Z,75.30
2022-07-29T06:44:17.767Z,79.97
2022-07-29T06:46:45.733Z,75.76
2022-07-29T06:49:14.914Z,73.28
2022-07-29T06:51:43.821Z,71.80
2022-07-29T06:54:11.340Z,74.38
2022-07-29T06:56:42.080Z,74.98
2022-07-29T06:59:11.360Z,75.17
2022-07-29T07:01:39.446Z,74.91
2022-07-29T07:04:07.626Z,74.64
2022-07-29T07:06:35.425Z,71.41
2022-07-29T07:09:04.758Z,64.09
2022-07-29T07:11:32.519Z,62.23
2022-07-29T07:14:03.556Z,61.82
2022-07-29T07:16:32.208Z,55.83
2022-07-29T07:19:00.079Z,50.55
2022-07-29T07:21:30.307Z,49.30
2022-07-29T07:23:58.208Z,45.86
2022-07-29T07:26:27.970Z,44.28
2022-07-29T07:28:55.510Z,43.11
2022-07-29T07:31:23.344Z,44.42
2022-07-29T07:33:50.860Z,44.41
2022-07-29T07:36:18.330Z,42.86
2022-07-29T07:38:45.804Z,40.81
2022-07-29T07:41:13.260Z,38.53
2022-07-29T07:43:42.330Z,35.01
2022-07-29T07:46:09.895Z,33.06
2022-07-29T07:48:37.520Z,32.15
2022-07-29T07:51:05.116Z,31.08
2022-07-29T07:53:32.707Z,31.01
2022-07-29T07:56:10.419Z,29.90
2022-07-29T07:58:39.386Z,30.75
2022-07-29T08:01:08.465Z,31.28
2022-07-29T08:03:36.288Z,31.49
2022-07-29T08:06:04.354Z,31.71
2022-07-29T08:08:31.814Z,31.48
2022-07-29T08:11:00.603Z,30.44
2022-07-29T08:13:31.355Z,31.84
2022-07-29T08:16:01.167Z,31.83
2022-07-29T08:18:32.627Z,32.52
2022-07-29T08:21:00.737Z,35.26
2022-07-29T08:23:45.742Z,34.24
2022-07-29T08:26:16.663Z,37.53
2022-07-29T08:28:46.855Z,37.50
2022-07-29T08:31:15.316Z,39.10
2022-07-29T08:33:44.563Z,41.81
2022-07-29T08:36:13.943Z,42.57
2022-07-29T08:38:41.416Z,43.46
2022-07-29T08:41:09.094Z,44.02
2022-07-29T08:43:38.317Z,42.69
2022-07-29T08:46:06.276Z,43.17
2022-07-29T08:48:35.222Z,40.23
2022-07-29T08:51:04.754Z,37.59
2022-07-29T08:53:33.769Z,38.64
2022-07-29T08:56:01.618Z,41.17
2022-07-29T08:58:36.558Z,41.34
2022-07-29T09:01:06.844Z,41.48
2022-07-29T09:03:38.665Z,38.56
2022-07-29T09:06:07.690Z,35.79
2022-07-29T09:08:35.754Z,36.49
2022-07-29T09:11:05.390Z,34.62
2022-07-29T09:13:33.424Z,35.71
2022-07-29T09:16:04.479Z,34.22
2022-07-29T09:18:36.607Z,35.61
2022-07-29T09:21:22.894Z,34.28
2022-07-29T09:24:08.624Z,33.62
2022-07-29T09:26:40.449Z,34.09
2022-07-29T09:29:11.662Z,34.89
2022-07-29T09:31:41.104Z,33.62
2022-07-29T09:34:09.331Z,34.23
2022-07-29T09:36:41.314Z,34.04
2022-07-29T09:39:10.228Z,32.67
2022-07-29T09:41:48.449Z,33.28
2022-07-29T09:44:16.661Z,33.10
2022-07-29T09:46:56.070Z,34.18
2022-07-29T09:49:23.805Z,34.92
2022-07-29T09:52:01.917Z,34.53
2022-07-29T09:54:35.393Z,32.30
2022-07-29T09:57:02.920Z,31.62
2022-07-29T09:59:30.388Z,31.19
2022-07-29T10:01:58.671Z,32.50
2022-07-29T10:04:37.904Z,34.51
2022-07-29T10:07:05.978Z,32.34
2022-07-29T10:09:35.258Z,30.77
2022-07-29T10:12:11.847Z,31.74
2022-07-29T10:14:40.208Z,31.60
2022-07-29T10:17:09.024Z,31.93
2022-07-29T10:19:37.895Z,33.01
2022-07-29T10:22:07.349Z,32.38
2022-07-29T10:24:38.215Z,31.16
2022-07-29T10:27:07.787Z,29.30
2022-07-29T10:29:36.683Z,28.17
2022-07-29T10:32:31.936Z,28.20
2022-07-29T10:35:29.027Z,27.81
2022-07-29T10:38:29.240Z,27.82
2022-07-29T10:41:26.222Z,27.05
2022-07-29T10:43:56.375Z,25.20
2022-07-29T10:46:25.672Z,24.05
2022-07-29T10:49:15.745Z,25.00
2022-07-29T10:52:03.559Z,26.38
2022-07-29T10:54:45.991Z,28.12
2022-07-29T10:57:21.411Z,29.76
2022-07-29T11:00:29.912Z,28.22
2022-07-29T11:02:59.189Z,27.52
2022-07-29T11:05:32.226Z,27.08
2022-07-29T11:08:26.442Z,27.45
2022-07-29T11:11:34.905Z,29.60
2022-07-29T11:14:03.853Z,32.49
2022-07-29T11:17:06.250Z,30.21
2022-07-29T11:19:35.771Z,30.55
2022-07-29T11:22:03.888Z,30.54
2022-07-29T11:24:34.849Z,30.97
2022-07-29T11:27:18.349Z,30.62
2022-07-29T11:29:54.027Z,29.09
2022-07-29T11:32:24.177Z,28.74
2022-07-29T11:35:18.126Z,29.20
2022-07-29T11:40:34.089Z,28.94
2022-07-29T11:43:01.602Z,29.33
2022-07-29T11:45:48.586Z,30.20
2022-07-29T11:51:13.297Z,33.33
2022-07-29T11:53:41.502Z,32.19
2022-07-29T11:56:17.076Z,32.40
2022-07-29T11:58:44.761Z,33.43
2022-07-29T12:01:19.279Z,34.53
2022-07-29T12:03:46.855Z,34.74
2022-07-29T12:06:17.468Z,34.81
2022-07-29T12:07:01.664Z,29.30
2022-07-29T12:08:47.557Z,36.20
2022-07-29T12:11:20.958Z,37.08
2022-07-29T12:13:49.939Z,36.91
2022-07-29T12:16:27.961Z,37.64
2022-07-29T12:18:59.469Z,37.43
2022-07-29T12:21:29.024Z,37.44
2022-07-29T12:24:05.973Z,37.51
2022-07-29T12:26:37.508Z,37.69
2022-07-29T12:29:11.344Z,37.75
2022-07-29T12:31:45.466Z,38.36
2022-07-29T12:34:13.765Z,37.04
2022-07-29T12:36:42.214Z,36.82
2022-07-29T12:39:10.159Z,36.84
2022-07-29T12:41:37.757Z,37.40
2022-07-29T12:44:05.698Z,37.26
2022-07-29T12:46:33.300Z,36.90
2022-07-29T12:49:04.172Z,37.33
2022-07-29T12:51:33.006Z,36.95
2022-07-29T12:54:05.628Z,36.86
2022-07-29T12:56:42.616Z,39.05
2022-07-29T12:59:16.216Z,41.53
2022-07-29T13:01:43.946Z,45.17
2022-07-29T13:04:12.857Z,43.35
2022-07-29T13:06:42.584Z,45.67
2022-07-29T13:09:15.369Z,49.76
2022-07-29T13:11:48.335Z,54.04
2022-07-29T13:14:31.979Z,55.17
2022-07-29T13:17:03.992Z,55.68
2022-07-29T13:19:38.776Z,52.80
2022-07-29T13:22:06.763Z,52.76
2022-07-29T13:24:34.346Z,51.89
2022-07-29T13:27:01.884Z,50.94
2022-07-29T13:29:33.301Z,51.94
2022-07-29T13:32:01.125Z,54.65
2022-07-29T13:34:29.215Z,54.31
2022-07-29T13:36:58.048Z,53.60
2022-07-29T13:39:25.540Z,50.88
2022-07-29T13:41:57.487Z,50.61
2022-07-29T13:44:25.284Z,49.07
2022-07-29T13:46:52.804Z,46.96
2022-07-29T13:49:20.341Z,49.13
2022-07-29T13:51:47.883Z,49.22
2022-07-29T13:54:16.839Z,48.91
2022-07-29T13:56:44.375Z,47.48
2022-07-29T13:59:14.495Z,48.29
2022-07-29T14:01:43.016Z,49.34
2022-07-29T14:04:12.278Z,45.70
2022-07-29T14:06:40.608Z,45.88
2022-07-29T14:09:09.568Z,43.52
2022-07-29T14:11:39.296Z,42.19
2022-07-29T14:14:06.958Z,40.11
2022-07-29T14:16:37.084Z,39.36
2022-07-29T14:19:08.145Z,41.69
2022-07-29T14:21:36.538Z,46.90
2022-07-29T14:24:05.112Z,52.36
2022-07-29T14:26:46.974Z,51.12
2022-07-29T14:29:14.550Z,50.79
2022-07-29T14:31:43.976Z,47.21
2022-07-29T14:34:11.804Z,48.17
2022-07-29T14:36:39.388Z,49.95
2022-07-29T14:39:06.891Z,48.59
2022-07-29T14:41:34.563Z,45.94
2022-07-29T14:44:03.402Z,45.44
2022-07-29T14:46:30.989Z,45.48
2022-07-29T14:48:58.635Z,44.58
2022-07-29T14:51:32.184Z,44.13
2022-07-29T14:54:00.255Z,43.04
2022-07-29T14:56:36.914Z,46.00
2022-07-29T14:59:06.805Z,49.35
2022-07-29T15:01:34.372Z,49.53
2022-07-29T15:04:01.997Z,50.34
2022-07-29T15:06:29.736Z,47.83
2022-07-29T15:08:57.237Z,47.22
2022-07-29T15:11:24.752Z,51.87
2022-07-29T15:13:52.242Z,57.03
2022-07-29T15:16:21.107Z,61.76
2022-07-29T15:18:48.669Z,62.94
2022-07-29T15:21:16.395Z,61.87
2022-07-29T15:23:43.876Z,62.22
2022-07-29T15:26:11.444Z,60.59
2022-07-29T15:28:38.922Z,60.55
2022-07-29T15:31:06.431Z,56.34
2022-07-29T15:33:35.325Z,57.62
2022-07-29T15:36:02.829Z,56.62
2022-07-29T15:38:30.348Z,53.48
2022-07-29T15:40:57.939Z,52.42
2022-07-29T15:43:26.530Z,52.46
2022-07-29T15:46:12.963Z,52.36
2022-07-29T15:48:41.865Z,53.90
2022-07-29T15:51:09.535Z,55.08
2022-07-29T15:53:37.052Z,54.89
2022-07-29T15:56:04.822Z,57.35
2022-07-29T15:58:32.374Z,57.95
2022-07-29T16:00:59.907Z,59.08
2022-07-29T16:03:27.500Z,60.36
2022-07-29T16:05:56.326Z,60.14
2022-07-29T16:08:23.783Z,58.90
2022-07-29T16:10:51.320Z,58.65
2022-07-29T16:13:19.088Z,58.92
2022-07-29T16:16:02.706Z,57.67
2022-07-29T16:18:30.813Z,56.64
2022-07-29T16:21:00.157Z,55.75
2022-07-29T16:23:27.627Z,56.64
2022-07-29T16:25:59.998Z,54.33
2022-07-29T16:28:28.314Z,54.52
2022-07-29T16:30:55.784Z,53.62
2022-07-29T16:33:23.493Z,52.40
2022-07-29T16:35:51.261Z,51.73
2022-07-29T16:38:20.232Z,51.51
2022-07-29T16:40:47.694Z,51.72
2022-07-29T16:43:15.211Z,51.73
2022-07-29T16:45:46.176Z,50.96
2022-07-29T16:48:14.732Z,52.63
2022-07-29T16:50:43.276Z,51.85
2022-07-29T16:53:11.468Z,52.28
2022-07-29T16:55:42.415Z,53.30
2022-07-29T16:58:10.597Z,53.92
2022-07-29T17:00:38.810Z,54.61
2022-07-29T17:03:06.599Z,54.87
2022-07-29T17:05:52.214Z,56.41
2022-07-29T17:08:21.900Z,58.81
2022-07-29T17:10:51.280Z,63.36
2022-07-29T17:13:18.760Z,64.33
2022-07-29T17:15:46.214Z,69.34
2022-07-29T17:18:13.739Z,72.61
2022-07-29T17:20:41.922Z,75.26
2022-07-29T17:23:09.411Z,80.20
2022-07-29T17:25:36.960Z,83.75
2022-07-29T17:28:05.923Z,87.73
2022-07-29T17:30:33.376Z,84.46
2022-07-29T17:33:00.856Z,78.98
2022-07-29T17:35:46.016Z,79.19
2022-07-29T17:38:13.516Z,81.50
2022-07-29T17:40:41.040Z,80.63
2022-07-29T17:43:10.167Z,81.40
2022-07-29T17:45:49.948Z,79.85
2022-07-29T17:48:18.871Z,79.63
2022-07-29T17:50:47.246Z,80.15
2022-07-29T17:53:16.606Z,81.44
2022-07-29T17:55:45.548Z,86.80
2022-07-29T17:58:14.476Z,84.91
2022-07-29T18:00:42.194Z,89.23
2022-07-29T18:03:10.157Z,95.69
2022-07-29T18:05:37.798Z,96.69
2022-07-29T18:08:05.877Z,100.00
2022-07-29T18:10:33.523Z,100.00
2022-07-29T18:13:01.030Z,100.00
2022-07-29T18:15:29.891Z,100.00
2022-07-29T18:17:58.141Z,100.00
2022-07-29T18:20:25.920Z,100.00
2022-07-29T18:22:53.617Z,100.00
2022-07-29T18:25:21.220Z,100.00
2022-07-29T18:27:48.779Z,100.00
2022-07-29T18:30:16.408Z,100.00
2022-07-29T18:33:05.012Z,100.00
2022-07-29T18:35:33.001Z,100.00
2022-07-29T18:38:03.059Z,100.00
2022-07-29T18:40:31.348Z,100.00
2022-07-29T18:42:59.084Z,100.00
2022-07-29T18:45:28.749Z,100.00
2022-07-29T18:47:57.880Z,100.00
2022-07-29T18:50:29.383Z,100.00
2022-07-29T18:52:58.681Z,100.00
2022-07-29T18:55:27.043Z,100.00
2022-07-29T18:57:57.153Z,100.00
2022-07-29T19:00:26.416Z,100.00
2022-07-29T19:02:54.357Z,100.00
2022-07-29T19:05:23.964Z,100.00
2022-07-29T19:07:51.548Z,100.00
2022-07-29T19:10:19.234Z,100.00
2022-07-29T19:12:46.762Z,100.00
2022-07-29T19:15:20.464Z,100.00
2022-07-29T19:17:48.541Z,100.00
2022-07-29T19:20:16.598Z,100.00
2022-07-29T19:22:45.564Z,100.00
2022-07-29T19:25:13.231Z,100.00
2022-07-29T19:27:42.731Z,100.00
2022-07-29T19:30:11.230Z,100.00
2022-07-29T19:32:38.818Z,100.00
2022-07-29T19:35:25.553Z,100.00
2022-07-29T19:37:56.313Z,100.00
2022-07-29T19:40:23.855Z,100.00
2022-07-29T19:42:52.745Z,100.00
2022-07-29T19:45:21.177Z,100.00
2022-07-29T19:47:49.644Z,100.00
2022-07-29T19:50:17.863Z,100.00
2022-07-29T19:52:47.318Z,96.08
2022-07-29T19:55:16.462Z,90.69
2022-07-29T19:57:46.902Z,96.06
2022-07-29T20:00:15.932Z,100.00
2022-07-29T20:02:43.716Z,100.00
2022-07-29T20:05:12.158Z,100.00
2022-07-29T20:07:40.609Z,100.00
2022-07-29T20:10:09.837Z,100.00
2022-07-29T20:12:39.021Z,100.00
2022-07-29T20:15:08.434Z,100.00
2022-07-29T20:17:39.786Z,100.00
2022-07-29T20:20:09.453Z,100.00
2022-07-29T20:22:37.324Z,100.00
2022-07-29T20:25:05.903Z,100.00
2022-07-29T20:27:36.760Z,100.00
2022-07-29T20:30:07.199Z,100.00
2022-07-29T20:32:35.495Z,100.00
2022-07-29T20:35:03.053Z,100.00
2022-07-29T20:37:30.670Z,100.00
2022-07-29T20:39:58.179Z,100.00
2022-07-29T20:42:25.961Z,100.00
2022-07-29T20:44:53.902Z,100.00
2022-07-29T20:47:23.187Z,100.00
2022-07-29T20:49:51.067Z,100.00
2022-07-29T20:52:19.616Z,100.00
2022-07-29T20:54:47.376Z,100.00
2022-07-29T20:57:14.885Z,100.00
2022-07-29T20:59:45.824Z,100.00
2022-07-29T21:02:13.499Z,100.00
2022-07-29T21:04:43.600Z,100.00
2022-07-29T21:07:11.113Z,100.00
2022-07-29T21:09:38.624Z,100.00
2022-07-29T21:12:07.100Z,100.00
2022-07-29T21:14:47.803Z,100.00
2022-07-29T21:17:16.588Z,100.00
2022-07-29T21:19:46.987Z,100.00
2022-07-29T21:22:14.607Z,100.00
2022-07-29T21:24:42.109Z,100.00
2022-07-29T21:27:27.604Z,100.00
2022-07-29T21:29:55.388Z,100.00
2022-07-29T21:32:30.164Z,100.00
2022-07-29T21:34:59.426Z,100.00
2022-07-29T21:37:26.998Z,100.00
2022-07-29T21:39:54.533Z,100.00
2022-07-29T21:42:22.084Z,100.00
2022-07-29T21:44:49.662Z,100.00
2022-07-29T21:47:17.180Z,100.00
2022-07-29T21:49:46.386Z,100.00
2022-07-29T21:52:15.584Z,100.00
2022-07-29T21:54:45.728Z,100.00
2022-07-29T21:57:13.268Z,100.00
2022-07-29T21:59:40.843Z,100.00
2022-07-29T22:02:08.653Z,100.00
2022-07-29T22:04:36.578Z,100.00
2022-07-29T22:07:04.449Z,100.00
2022-07-29T22:09:33.514Z,100.00
2022-07-29T22:12:02.531Z,100.00
2022-07-29T22:14:30.073Z,100.00
2022-07-29T22:16:58.735Z,100.00
2022-07-29T22:19:27.410Z,100.00
2022-07-29T22:21:55.198Z,100.00
2022-07-29T22:24:22.721Z,100.00
2022-07-29T22:26:51.609Z,100.00
2022-07-29T22:29:19.270Z,100.00
2022-07-29T22:31:46.778Z,100.00
2022-07-29T22:34:14.379Z,100.00
2022-07-29T22:36:43.252Z,100.00
2022-07-29T22:39:10.769Z,100.00
2022-07-29T22:41:43.017Z,100.00
2022-07-29T22:44:11.913Z,100.00
2022-07-29T22:46:39.557Z,100.00
2022-07-29T22:49:07.178Z,100.00
2022-07-29T22:51:35.536Z,100.00
2022-07-29T22:54:03.737Z,100.00
2022-07-29T22:56:31.805Z,100.00
2022-07-29T22:58:59.336Z,100.00
2022-07-29T23:01:37.221Z,100.00
2022-07-29T23:04:05.826Z,100.00
2022-07-29T23:06:34.077Z,100.00
2022-07-29T23:09:01.626Z,100.00
2022-07-29T23:11:29.209Z,100.00
2022-07-29T23:13:56.744Z,100.00
2022-07-29T23:16:26.809Z,100.00
2022-07-29T23:18:56.212Z,100.00
2022-07-29T23:21:24.506Z,100.00
2022-07-29T23:23:52.001Z,100.00
2022-07-29T23:26:19.644Z,100.00
2022-07-29T23:28:47.259Z,100.00
2022-07-29T23:31:14.828Z,100.00
2022-07-29T23:33:42.767Z,100.00
2022-07-29T23:36:11.646Z,100.00
2022-07-29T23:38:40.779Z,100.00
2022-07-29T23:41:09.597Z,100.00
2022-07-29T23:43:37.237Z,100.00
2022-07-29T23:46:06.377Z,100.00
2022-07-29T23:48:34.638Z,100.00
2022-07-29T23:51:02.169Z,100.00
2022-07-29T23:53:30.992Z,100.00
2022-07-29T23:55:58.494Z,100.00
2022-07-29T23:58:25.953Z,100.00
